Time;durP1;ratioP1;P1;durP2;ratioP2;P2;SDS_P1;SDS_P2;PMS_P1;PMS_P2;Temp;Humidity;BMP_temperature;BMP_pressure;BME280_temperature;BME280_humidity;BME280_pressure;Samples;Min_cycle;Max_cycle;Signal;HPM_P1;HPM_P2
2022/02/23 04:32:57;;;;;;;4.83;2.17;;;;;;;10.41;59.09;99705.19;7111006;23;20237;-82
2022/02/23 04:36:19;;;;;;;6.53;2.33;;;;;;;10.49;58.43;99707.78;6834530;29;20209;-81
2022/02/23 04:39:40;;;;;;;4.07;2.40;;;;;;;10.45;58.38;99714.56;6842376;29;20221;-81
2022/02/23 04:43:02;;;;;;;7.03;3.00;;;;;;;10.49;58.18;99699.69;6849399;28;20713;-81
2022/02/23 04:46:23;;;;;;;7.00;2.43;;;;;;;10.52;57.75;99715.50;6846680;28;20261;-80
2022/02/23 04:49:46;;;;;;;7.50;2.60;;;;;;;9.94;59.71;99727.91;6838538;28;20292;-81
2022/02/23 04:53:09;;;;;;;6.77;2.57;;;;;;;10.39;59.04;99741.44;6818971;28;20274;-80
2022/02/23 04:56:30;;;;;;;7.03;2.33;;;;;;;10.13;59.42;99724.78;6810548;29;20285;-79
2022/02/23 04:59:52;;;;;;;4.97;2.40;;;;;;;9.97;60.31;99719.47;6810715;29;20250;-80
2022/02/23 05:03:14;;;;;;;5.87;2.37;;;;;;;9.85;60.55;99718.19;6827579;29;20261;-80
2022/02/23 05:06:37;;;;;;;6.27;2.87;;;;;;;9.99;59.70;99739.81;6837280;29;20229;-80
2022/02/23 05:09:59;;;;;;;4.80;2.63;;;;;;;10.16;59.15;99736.03;6838709;28;20613;-80
2022/02/23 05:13:21;;;;;;;5.80;2.80;;;;;;;10.14;58.73;99729.13;6838136;28;20230;-79
2022/02/23 05:16:43;;;;;;;4.87;3.00;;;;;;;10.16;58.66;99754.88;6837852;28;20202;-80
2022/02/23 05:20:07;;;;;;;3.13;2.90;;;;;;;10.25;57.93;99726.03;6838121;28;20209;-80
2022/02/23 05:23:32;;;;;;;5.30;2.77;;;;;;;10.36;57.91;99744.47;6838254;28;20205;-80
2022/02/23 05:26:54;;;;;;;4.80;2.77;;;;;;;10.28;57.69;99758.84;6838013;28;20683;-79
2022/02/23 05:30:16;;;;;;;6.83;3.40;;;;;;;10.19;58.24;99769.88;6833346;28;20586;-80
2022/02/23 05:33:37;;;;;;;7.27;3.90;;;;;;;10.07;57.78;99741.66;6829450;28;20285;-80
2022/02/23 05:36:59;;;;;;;11.27;4.33;;;;;;;9.97;58.22;99765.25;6836488;28;20210;-79
2022/02/23 05:40:22;;;;;;;4.83;3.10;;;;;;;10.12;57.58;99763.53;6838020;28;20214;-80
2022/02/23 05:43:43;;;;;;;7.97;3.03;;;;;;;10.04;58.00;99780.56;6838158;28;20209;-80
2022/02/23 05:47:05;;;;;;;8.47;3.13;;;;;;;9.70;58.91;99765.78;6845156;28;20253;-80
2022/02/23 05:50:26;;;;;;;4.67;2.70;;;;;;;9.97;58.16;99782.28;6847547;28;20232;-81
2022/02/23 05:53:48;;;;;;;6.77;3.10;;;;;;;9.96;58.08;99786.00;6835368;28;20213;-81
2022/02/23 05:57:12;;;;;;;4.43;2.80;;;;;;;9.92;57.78;99784.66;6826248;28;20249;-81
2022/02/23 06:00:33;;;;;;;7.27;2.97;;;;;;;9.76;57.96;99805.47;6843690;28;20835;-81
2022/02/23 06:03:55;;;;;;;8.07;3.40;;;;;;;9.70;57.94;99800.78;6843740;28;20209;-81
2022/02/23 06:07:17;;;;;;;7.60;3.90;;;;;;;9.66;58.55;99808.38;6847856;28;20230;-83
2022/02/23 06:10:38;;;;;;;7.33;3.17;;;;;;;9.61;58.29;99823.34;6815067;28;20325;-82
2022/02/23 06:14:01;;;;;;;8.43;3.73;;;;;;;9.55;58.78;99832.13;6828855;29;20205;-82
2022/02/23 06:17:24;;;;;;;7.00;4.13;;;;;;;9.76;58.25;99825.16;6834927;28;20246;-80
2022/02/23 06:20:46;;;;;;;8.97;4.40;;;;;;;9.47;58.18;99830.31;6836554;28;20230;-81
2022/02/23 06:24:08;;;;;;;4.93;3.70;;;;;;;9.19;58.62;99828.19;6836853;28;20308;-81
2022/02/23 06:27:30;;;;;;;9.30;3.90;;;;;;;9.13;59.69;99839.63;6838268;28;20249;-81
2022/02/23 06:30:53;;;;;;;7.33;3.70;;;;;;;9.00;59.71;99844.72;6838479;28;20278;-83
2022/02/23 06:34:14;;;;;;;6.03;3.30;;;;;;;9.34;59.28;99856.09;6843962;28;20219;-82
2022/02/23 06:37:36;;;;;;;7.60;3.80;;;;;;;8.98;59.26;99860.19;6845911;28;20202;-81
2022/02/23 06:40:58;;;;;;;6.30;3.53;;;;;;;8.33;62.20;99874.59;6853667;28;20234;-81
2022/02/23 06:44:20;;;;;;;12.57;3.57;;;;;;;8.76;61.56;99863.56;6829046;28;20682;-81
2022/02/23 06:47:43;;;;;;;7.80;3.50;;;;;;;8.93;60.90;99892.94;6821668;29;20313;-81
2022/02/23 06:51:05;;;;;;;5.97;4.03;;;;;;;9.50;59.04;99897.25;6820375;29;20280;-81
2022/02/23 06:54:27;;;;;;;5.93;3.50;;;;;;;9.54;58.00;99879.75;6838536;29;20213;-81
2022/02/23 06:57:48;;;;;;;5.33;4.03;;;;;;;9.41;59.14;99894.75;6850465;28;20353;-81
2022/02/23 07:01:10;;;;;;;6.47;4.00;;;;;;;8.82;60.45;99892.44;6848810;28;20607;-81
2022/02/23 07:04:33;;;;;;;9.60;4.43;;;;;;;8.11;63.85;99885.06;6851427;28;20210;-85
2022/02/23 07:07:54;;;;;;;8.63;4.03;;;;;;;8.61;62.70;99904.72;6851606;28;20214;-85
2022/02/23 07:11:17;;;;;;;7.77;4.30;;;;;;;9.25;61.55;99892.94;6852716;28;20225;-81
2022/02/23 07:14:38;;;;;;;6.87;4.03;;;;;;;9.37;60.66;99912.25;6845870;28;20217;-81
2022/02/23 07:18:00;;;;;;;6.70;3.77;;;;;;;9.69;60.34;99899.56;6819306;29;20690;-82
2022/02/23 07:21:23;;;;;;;9.67;3.70;;;;;;;9.80;59.68;99906.44;6843569;28;20566;-82
2022/02/23 07:24:45;;;;;;;6.53;3.50;;;;;;;10.00;58.73;99905.00;6848566;28;20209;-82
2022/02/23 07:28:07;;;;;;;6.83;4.20;;;;;;;9.20;61.06;99930.28;6847981;28;20470;-84
2022/02/23 07:31:28;;;;;;;11.23;4.77;;;;;;;10.03;60.14;99902.84;6835985;28;20272;-80
2022/02/23 07:34:50;;;;;;;10.53;4.03;;;;;;;10.01;58.85;99910.22;6841935;28;20224;-82
2022/02/23 07:38:13;;;;;;;6.70;3.53;;;;;;;10.82;58.51;99927.69;6841713;28;20577;-80
2022/02/23 07:41:35;;;;;;;8.87;5.23;;;;;;;10.70;56.76;99868.91;6843042;28;20238;-80
2022/02/23 07:44:56;;;;;;;11.13;4.70;;;;;;;11.78;55.55;99929.53;6841111;28;20220;-82
2022/02/23 07:48:18;;;;;;;8.13;4.30;;;;;;;12.24;52.47;99903.13;6839401;28;20217;-79
2022/02/23 07:51:39;;;;;;;10.33;4.43;;;;;;;12.51;53.08;99927.59;6835534;28;20361;-79
2022/02/23 07:55:02;;;;;;;10.33;4.73;;;;;;;12.93;52.64;99924.94;6835979;28;20209;-79
2022/02/23 07:58:24;;;;;;;8.97;4.73;;;;;;;13.00;52.66;99933.16;6828614;28;20254;-78
2022/02/23 08:01:47;;;;;;;9.63;4.60;;;;;;;13.53;51.46;99938.00;6832081;28;20698;-79
2022/02/23 08:05:09;;;;;;;8.50;3.97;;;;;;;13.49;51.32;99942.13;6833139;28;20834;-79
2022/02/23 08:08:31;;;;;;;8.40;4.00;;;;;;;14.09;50.25;99945.09;6825337;28;20303;-79
2022/02/23 08:11:54;;;;;;;8.53;4.23;;;;;;;14.13;49.64;99935.50;6808484;29;20287;-79
2022/02/23 08:22:35;;;;;;;10.67;4.93;;;;;;;14.62;48.37;99947.06;6809601;29;20228;-79
2022/02/23 08:25:57;;;;;;;9.67;5.17;;;;;;;15.56;46.41;99919.63;6809144;29;20265;-79
2022/02/23 08:29:19;;;;;;;11.90;4.53;;;;;;;16.39;43.65;99928.72;6809220;29;20682;-79
2022/02/23 08:32:41;;;;;;;10.10;4.50;;;;;;;16.17;44.18;99926.44;6808613;29;20265;-79
2022/02/23 08:36:03;;;;;;;7.40;4.50;;;;;;;16.29;44.94;99914.66;6812179;29;20197;-79
2022/02/23 08:39:25;;;;;;;7.60;3.57;;;;;;;17.14;43.23;99922.44;6828680;29;20202;-79
2022/02/23 08:42:46;;;;;;;7.33;3.63;;;;;;;16.96;42.51;99919.63;6821209;28;20260;-79
2022/02/23 08:46:09;;;;;;;5.47;3.10;;;;;;;17.16;42.11;99893.91;6808555;29;20365;-79
2022/02/23 08:49:31;;;;;;;10.33;3.87;;;;;;;16.89;43.54;99876.09;6808958;29;20203;-79
2022/02/23 08:52:53;;;;;;;7.80;2.97;;;;;;;17.64;41.36;99916.00;6808739;29;20369;-79
2022/02/23 08:56:14;;;;;;;9.23;2.70;;;;;;;17.24;43.09;99922.78;6807967;29;20210;-79
2022/02/23 08:59:36;;;;;;;6.27;2.40;;;;;;;19.45;37.75;99912.91;6809258;29;20219;-79
2022/02/23 09:02:59;;;;;;;8.23;3.43;;;;;;;19.37;38.25;99906.94;6808235;29;20869;-79
2022/02/23 09:06:22;;;;;;;5.53;2.40;;;;;;;19.86;35.57;99881.91;6808111;29;20232;-79
2022/02/23 09:09:44;;;;;;;7.83;2.50;;;;;;;20.56;33.79;99853.31;6809319;29;20211;-79
2022/02/23 09:13:07;;;;;;;6.77;2.27;;;;;;;19.76;35.00;99877.00;6813183;29;20274;-79
2022/02/23 09:16:29;;;;;;;8.70;2.37;;;;;;;20.99;34.02;99909.28;6817900;29;20216;-80
2022/02/23 09:19:54;;;;;;;4.60;2.30;;;;;;;21.55;32.38;99901.00;6819262;29;20859;-80
2022/02/23 09:23:16;;;;;;;6.07;2.20;;;;;;;21.48;31.48;99892.91;6818716;29;20241;-80
2022/02/23 09:26:37;;;;;;;6.67;2.47;;;;;;;20.72;33.17;99899.97;6817176;29;20234;-79
2022/02/23 09:29:59;;;;;;;5.53;2.30;;;;;;;18.43;35.96;99922.31;6813450;29;20210;-79
2022/02/23 09:33:21;;;;;;;3.27;2.30;;;;;;;17.22;39.81;99914.81;6806923;29;20241;-79
2022/02/23 09:36:43;;;;;;;6.73;2.93;;;;;;;17.32;39.50;99917.91;6807039;29;20253;-79
2022/02/23 09:40:06;;;;;;;9.10;2.70;;;;;;;17.28;38.96;99903.03;6807682;29;20210;-79
2022/02/23 09:43:28;;;;;;;4.40;2.43;;;;;;;16.45;39.68;99907.97;6807800;29;20209;-80
2022/02/23 09:46:50;;;;;;;5.90;2.10;;;;;;;16.98;40.26;99928.44;6807786;29;20228;-79
2022/02/23 09:50:18;;;;;;;6.43;2.30;;;;;;;16.19;40.08;99925.19;6808151;29;20274;-79
2022/02/23 09:53:45;;;;;;;4.77;2.30;;;;;;;16.45;39.70;99903.34;6807362;29;20288;-79
2022/02/23 09:57:07;;;;;;;4.93;2.23;;;;;;;17.10;38.65;99927.50;6807685;29;20668;-80
2022/02/23 10:00:29;;;;;;;6.87;2.50;;;;;;;17.65;37.57;99920.41;6807788;29;20752;-79
2022/02/23 10:03:51;;;;;;;5.77;2.60;;;;;;;17.69;36.60;99911.53;6807634;29;20308;-79
2022/02/23 10:07:13;;;;;;;6.43;2.30;;;;;;;16.82;38.52;99901.69;6807507;29;20313;-79
2022/02/23 10:10:38;;;;;;;5.03;2.00;;;;;;;15.89;40.57;99912.28;6807213;29;20233;-79
2022/02/23 10:14:01;;;;;;;8.53;2.57;;;;;;;16.43;42.25;99920.94;6807552;29;20246;-79
2022/02/23 10:17:37;;;;;;;4.97;2.47;;;;;;;17.54;37.76;99881.06;6807540;29;20206;-79
2022/02/23 10:20:58;;;;;;;5.03;2.37;;;;;;;17.85;36.36;99902.78;6807315;29;20240;-79
2022/02/23 10:24:25;;;;;;;7.20;2.90;;;;;;;16.42;37.57;99895.63;6807365;29;20613;-79
2022/02/23 10:27:48;;;;;;;6.60;3.70;;;;;;;17.31;37.70;99913.53;6807472;29;20754;-79
2022/02/23 10:31:10;;;;;;;6.40;3.07;;;;;;;17.78;36.99;99903.91;6806591;29;20249;-79
2022/02/23 10:34:37;;;;;;;6.47;2.50;;;;;;;16.28;37.99;99918.44;6807210;29;20631;-79
2022/02/23 10:37:59;;;;;;;3.63;1.90;;;;;;;16.10;38.30;99912.03;6807387;29;20189;-79
2022/02/23 10:41:25;;;;;;;5.97;2.27;;;;;;;14.28;41.90;99923.50;6807337;29;20269;-79
2022/02/23 10:44:50;;;;;;;7.40;2.30;;;;;;;14.68;41.49;99909.06;6807312;29;20200;-79
2022/02/23 10:48:12;;;;;;;6.93;2.30;;;;;;;15.63;40.42;99904.19;6807097;29;20214;-79
2022/02/23 10:51:35;;;;;;;5.23;2.30;;;;;;;15.61;39.24;99901.66;6807432;29;20942;-79
2022/02/23 10:55:15;;;;;;;5.60;2.00;;;;;;;15.73;39.49;99870.06;6806569;29;20269;-79
2022/02/23 10:58:36;;;;;;;6.60;2.67;;;;;;;15.70;38.86;99902.28;6807241;29;20198;-79
2022/02/23 11:01:59;;;;;;;7.23;2.30;;;;;;;16.23;37.89;99846.69;6806943;29;20235;-79
2022/02/23 11:05:24;;;;;;;6.20;1.90;;;;;;;16.85;37.38;99880.31;6806649;29;20726;-79
2022/02/23 11:08:49;;;;;;;3.67;2.30;;;;;;;16.85;36.65;99884.91;6807065;29;20369;-79
2022/02/23 11:12:11;;;;;;;2.30;1.90;;;;;;;17.87;35.85;99876.09;6806829;29;20707;-79
2022/02/23 11:15:32;;;;;;;5.83;2.33;;;;;;;16.41;36.71;99879.50;6806618;29;20319;-79
2022/02/23 11:18:57;;;;;;;5.60;2.57;;;;;;;17.45;35.71;99870.66;6807450;29;20275;-79
2022/02/23 11:22:19;;;;;;;8.13;2.53;;;;;;;17.68;35.74;99851.78;6807391;29;20703;-79
2022/02/23 11:25:41;;;;;;;7.07;2.57;;;;;;;18.05;34.80;99867.09;6807995;29;20218;-79
2022/02/23 11:29:06;;;;;;;3.87;2.10;;;;;;;17.87;35.51;99864.38;6812244;29;20361;-79
2022/02/23 11:32:33;;;;;;;5.87;2.13;;;;;;;17.59;35.70;99866.75;6810401;29;20241;-78
2022/02/23 11:35:58;;;;;;;3.87;2.30;;;;;;;16.43;35.60;99861.06;6810808;29;20194;-78
2022/02/23 11:39:21;;;;;;;5.53;2.60;;;;;;;16.69;36.37;99834.50;6811580;29;20197;-79
2022/02/23 11:42:45;;;;;;;7.03;2.83;;;;;;;17.18;35.07;99853.66;6811424;29;20295;-79
2022/02/23 11:46:26;;;;;;;2.40;2.20;;;;;;;16.80;35.70;99846.63;6810953;29;20238;-79
2022/02/23 11:54:27;;;;;;;6.20;2.50;;;;;;;17.43;34.70;99831.84;6811173;29;20187;-78
2022/02/23 11:58:25;;;;;;;6.23;2.30;;;;;;;17.84;34.66;99821.16;6811629;29;20297;-78
2022/02/23 12:01:48;;;;;;;4.47;2.27;;;;;;;17.36;35.04;99811.97;6812069;29;20230;-79
2022/02/23 12:05:33;;;;;;;5.50;2.30;;;;;;;18.50;33.27;99811.94;6810841;29;20246;-79
2022/02/23 12:08:55;;;;;;;3.57;1.83;;;;;;;18.61;34.19;99810.31;6812041;29;20350;-79
2022/02/23 12:12:50;;;;;;;6.43;2.60;;;;;;;18.85;33.42;99809.31;6822713;29;20245;-78
2022/02/23 12:16:22;;;;;;;7.30;2.30;;;;;;;18.11;34.62;99795.22;6844842;28;20197;-79
2022/02/23 12:19:45;;;;;;;3.93;2.50;;;;;;;17.07;34.56;99797.16;6836329;28;20214;-78
2022/02/23 12:23:08;;;;;;;4.47;2.00;;;;;;;16.96;35.26;99742.53;6837369;28;20239;-79
2022/02/23 12:26:30;;;;;;;5.77;2.60;;;;;;;18.57;32.15;99798.19;6840563;28;20290;-80
2022/02/23 12:29:55;;;;;;;5.80;2.80;;;;;;;18.75;32.11;99784.47;6846137;28;20202;-81
2022/02/23 12:33:17;;;;;;;6.60;2.60;;;;;;;18.88;31.74;99781.53;6844416;28;20248;-80
2022/02/23 12:36:43;;;;;;;4.73;2.17;;;;;;;19.03;30.96;99769.06;6845133;28;20217;-81
2022/02/23 12:40:06;;;;;;;4.57;2.57;;;;;;;19.42;31.12;99751.16;6853433;28;20213;-81
2022/02/23 12:43:28;;;;;;;6.33;2.67;;;;;;;19.24;32.12;99759.50;6850091;28;20207;-80
2022/02/23 12:46:52;;;;;;;5.83;2.20;;;;;;;17.98;33.99;99751.75;6847223;28;20226;-80
2022/02/23 12:50:14;;;;;;;4.90;2.37;;;;;;;18.77;33.19;99758.59;6847265;28;20221;-80
2022/02/23 12:53:39;;;;;;;4.07;2.30;;;;;;;18.57;32.56;99749.84;6845498;28;20217;-80
2022/02/23 12:57:01;;;;;;;9.40;2.20;;;;;;;18.60;33.47;99741.19;6846589;28;20660;-80
2022/02/23 13:00:24;;;;;;;6.43;2.80;;;;;;;18.67;32.56;99738.34;6846476;28;20216;-80
2022/02/23 13:03:45;;;;;;;4.47;2.57;;;;;;;18.73;32.17;99715.56;6845244;28;20214;-80
2022/02/23 13:07:10;;;;;;;5.20;2.00;;;;;;;18.40;32.42;99729.72;6844904;28;20229;-80
2022/02/23 13:10:33;;;;;;;6.33;2.47;;;;;;;18.31;32.23;99714.75;6845411;28;20226;-80
2022/02/23 13:13:54;;;;;;;7.93;2.67;;;;;;;17.74;33.44;99723.47;6845137;28;20202;-80
2022/02/23 13:17:17;;;;;;;9.93;3.00;;;;;;;18.19;32.21;99716.59;6846270;28;20206;-80
2022/02/23 13:20:39;;;;;;;5.37;2.20;;;;;;;18.37;32.31;99689.25;6845731;28;20708;-80
2022/02/23 13:24:01;;;;;;;6.97;2.33;;;;;;;17.76;33.45;99710.44;6844495;28;20367;-80
2022/02/23 13:27:25;;;;;;;11.23;2.73;;;;;;;18.11;34.06;99716.06;6854399;28;20233;-81
2022/02/23 13:30:47;;;;;;;5.67;2.70;;;;;;;18.13;33.56;99697.56;6857461;28;20250;-81
2022/02/23 13:34:30;;;;;;;6.23;2.23;;;;;;;18.69;33.27;99692.53;6858002;28;20294;-81
2022/02/23 13:37:54;;;;;;;7.37;2.37;;;;;;;19.14;32.33;99690.84;6856221;28;20213;-81
2022/02/23 13:41:16;;;;;;;7.40;2.90;;;;;;;19.40;30.39;99693.16;6857054;28;20228;-80
2022/02/23 13:44:41;;;;;;;3.43;2.00;;;;;;;18.57;30.85;99585.97;6843925;28;20213;-81
2022/02/23 13:48:08;;;;;;;6.83;2.50;;;;;;;19.19;30.77;99680.88;6842784;28;20241;-81
2022/02/23 13:51:30;;;;;;;7.20;2.47;;;;;;;19.29;29.23;99680.31;6842340;28;20225;-80
2022/02/23 13:55:09;;;;;;;7.80;2.17;;;;;;;19.18;29.49;99671.03;6843172;28;20221;-80
2022/02/23 13:58:33;;;;;;;3.70;2.13;;;;;;;18.61;30.76;99666.38;6844186;28;20190;-80
2022/02/23 14:02:05;;;;;;;6.10;2.27;;;;;;;19.38;31.02;99673.38;6840626;28;20234;-80
2022/02/23 14:05:26;;;;;;;6.43;2.40;;;;;;;19.30;30.22;99665.56;6840010;28;20722;-80
2022/02/23 14:08:56;;;;;;;5.33;2.47;;;;;;;19.17;31.39;99649.38;6841648;28;20249;-80
2022/02/23 14:12:17;;;;;;;5.57;2.17;;;;;;;19.35;31.63;99636.41;6844598;28;20695;-82
2022/02/23 14:15:41;;;;;;;4.50;2.37;;;;;;;18.35;31.03;99625.00;6847615;28;20237;-80
2022/02/23 14:19:12;;;;;;;7.97;2.50;;;;;;;19.07;31.12;99635.47;6849112;28;20686;-81
2022/02/23 14:22:34;;;;;;;5.40;2.07;;;;;;;19.24;30.93;99620.03;6845776;28;20225;-80
2022/02/23 14:25:57;;;;;;;4.40;2.40;;;;;;;18.46;31.85;99627.75;6845112;28;20205;-80
2022/02/23 14:29:25;;;;;;;8.03;2.70;;;;;;;18.15;32.13;99622.56;6845217;28;20233;-80
2022/02/23 14:32:46;;;;;;;4.93;2.13;;;;;;;18.45;31.70;99604.25;6842986;28;20269;-80
2022/02/23 14:36:09;;;;;;;5.27;2.47;;;;;;;17.18;33.06;99607.53;6844172;28;20300;-81
2022/02/23 14:39:31;;;;;;;6.57;2.10;;;;;;;18.55;32.22;99618.16;6845628;28;20244;-80
2022/02/23 14:42:53;;;;;;;7.13;2.33;;;;;;;19.08;31.53;99587.94;6834167;28;20308;-79
2022/02/23 14:46:15;;;;;;;6.07;2.43;;;;;;;18.64;31.95;99591.31;6833344;28;20264;-79
2022/02/23 14:49:36;;;;;;;4.73;2.00;;;;;;;18.60;31.63;99598.31;6833359;28;20240;-79
2022/02/23 14:52:59;;;;;;;3.80;2.17;;;;;;;18.65;30.87;99580.16;6833715;28;20238;-78
2022/02/23 14:56:21;;;;;;;4.23;2.10;;;;;;;18.68;30.18;99562.44;6833077;28;20566;-78
2022/02/23 14:59:44;;;;;;;7.57;2.30;;;;;;;17.75;32.21;99598.84;6845125;28;20670;-80
2022/02/23 15:03:05;;;;;;;3.83;2.03;;;;;;;17.78;32.38;99592.91;6853541;28;20231;-80
2022/02/23 15:06:27;;;;;;;4.93;2.20;;;;;;;17.39;32.59;99553.38;6852730;28;20221;-80
2022/02/23 15:09:50;;;;;;;6.77;2.20;;;;;;;17.58;32.65;99565.09;6853368;28;20229;-80
2022/02/23 15:13:12;;;;;;;3.57;1.90;;;;;;;17.85;32.64;99583.56;6825769;29;20232;-80
2022/02/23 15:16:33;;;;;;;3.10;1.87;;;;;;;17.96;32.71;99560.94;6825502;29;20222;-80
2022/02/23 15:19:57;;;;;;;5.27;2.20;;;;;;;18.55;31.55;99554.50;6847241;29;20206;-80
2022/02/23 15:23:19;;;;;;;4.67;1.93;;;;;;;18.25;31.45;99559.19;6842965;28;20291;-81
2022/02/23 15:26:42;;;;;;;2.87;1.80;;;;;;;18.48;30.36;99562.81;6841935;28;20209;-81
2022/02/23 15:30:05;;;;;;;5.63;2.17;;;;;;;17.80;31.16;99547.97;6843484;28;20216;-80
2022/02/23 15:33:27;;;;;;;3.07;1.80;;;;;;;18.27;31.56;99554.34;6841901;28;20240;-81
2022/02/23 15:36:49;;;;;;;4.27;2.10;;;;;;;17.95;32.09;99556.56;6843760;29;20213;-81
2022/02/23 15:40:10;;;;;;;5.57;1.80;;;;;;;18.06;32.10;99557.63;6842993;28;20202;-81
2022/02/23 15:43:33;;;;;;;5.37;2.00;;;;;;;17.92;31.66;99542.56;6842128;28;20212;-81
2022/02/23 15:46:55;;;;;;;3.53;2.07;;;;;;;17.98;31.73;99549.81;6841941;28;20206;-81
2022/02/23 15:50:18;;;;;;;4.60;2.17;;;;;;;17.97;31.74;99550.84;6841288;28;20357;-80
2022/02/23 15:53:39;;;;;;;4.80;2.20;;;;;;;18.08;31.82;99539.97;6835295;28;20202;-80
2022/02/23 15:57:01;;;;;;;3.70;2.00;;;;;;;17.90;32.96;99523.69;6819888;29;20213;-80
2022/02/23 16:00:24;;;;;;;8.60;2.33;;;;;;;18.00;32.54;99525.81;6815482;29;20667;-80
2022/02/23 16:03:46;;;;;;;2.87;1.90;;;;;;;18.03;32.09;99528.06;6839067;29;20430;-80
2022/02/23 16:07:07;;;;;;;8.20;2.07;;;;;;;17.86;32.77;99525.19;6841846;28;20206;-80
2022/02/23 16:10:29;;;;;;;6.67;2.07;;;;;;;17.97;33.37;99523.56;6841499;28;20256;-80
2022/02/23 16:13:51;;;;;;;3.20;1.97;;;;;;;17.87;34.33;99515.13;6840386;28;20245;-79
2022/02/23 16:17:14;;;;;;;6.43;2.03;;;;;;;17.49;36.77;99509.22;6840879;28;20248;-81
2022/02/23 16:20:36;;;;;;;4.63;2.43;;;;;;;17.32;35.65;99516.34;6841401;28;20233;-80
2022/02/23 16:23:58;;;;;;;6.13;3.00;;;;;;;16.81;35.66;99505.91;6840337;28;20244;-80
2022/02/23 16:27:19;;;;;;;6.00;2.30;;;;;;;16.67;36.39;99504.41;6839930;28;20244;-81
2022/02/23 16:30:42;;;;;;;5.17;2.63;;;;;;;16.33;36.58;99483.16;6839834;28;20306;-80
2022/02/23 16:34:05;;;;;;;5.90;2.53;;;;;;;16.35;37.44;99491.94;6838291;29;20248;-80
2022/02/23 16:37:26;;;;;;;7.87;2.60;;;;;;;15.39;38.71;99476.25;6839751;28;20226;-80
2022/02/23 16:40:48;;;;;;;4.77;2.60;;;;;;;15.88;38.84;99502.66;6840363;28;20284;-80
2022/02/23 16:44:10;;;;;;;7.03;2.73;;;;;;;15.77;39.17;99504.22;6839920;28;20221;-80
2022/02/23 16:47:31;;;;;;;5.77;2.60;;;;;;;15.17;40.54;99490.38;6841133;29;20233;-81
2022/02/23 16:50:54;;;;;;;4.23;2.23;;;;;;;15.15;40.65;99487.88;6840749;28;20226;-81
2022/02/23 16:54:16;;;;;;;4.83;2.60;;;;;;;15.07;41.24;99492.72;6840530;28;20610;-83
2022/02/23 16:57:37;;;;;;;8.13;3.10;;;;;;;14.72;42.25;99488.72;6840863;28;20372;-81
2022/02/23 17:00:59;;;;;;;4.30;2.57;;;;;;;14.58;42.28;99468.09;6842063;28;20238;-81
2022/02/23 17:04:22;;;;;;;4.23;2.70;;;;;;;14.49;42.92;99480.22;6840736;28;20228;-81
2022/02/23 17:07:45;;;;;;;10.13;2.70;;;;;;;14.52;42.97;99494.19;6841412;28;20233;-83
2022/02/23 17:11:07;;;;;;;5.93;3.40;;;;;;;14.11;43.80;99488.22;6846775;28;20261;-80
2022/02/23 17:14:28;;;;;;;7.87;3.30;;;;;;;14.02;44.02;99485.94;6850367;28;20284;-80
2022/02/23 17:17:53;;;;;;;4.90;2.83;;;;;;;13.88;44.10;99479.72;6841385;29;20216;-80
2022/02/23 17:21:14;;;;;;;10.33;3.97;;;;;;;13.52;45.39;99473.03;6839424;29;20243;-80
2022/02/23 17:24:37;;;;;;;8.53;5.17;;;;;;;13.26;45.97;99483.81;6837316;28;20215;-80
2022/02/23 17:27:59;;;;;;;8.27;4.70;;;;;;;13.27;46.10;99482.81;6838767;28;20223;-80
2022/02/23 17:31:21;;;;;;;8.03;5.37;;;;;;;13.02;47.18;99481.69;6836740;28;20240;-80
2022/02/23 17:34:43;;;;;;;9.53;5.20;;;;;;;13.03;47.00;99472.50;6837863;28;20881;-80
2022/02/23 17:38:06;;;;;;;8.23;4.33;;;;;;;12.63;47.84;99471.53;6837776;28;20706;-80
2022/02/23 17:41:29;;;;;;;9.57;5.17;;;;;;;12.49;48.34;99471.66;6837800;28;20916;-81
2022/02/23 17:44:51;;;;;;;6.77;5.27;;;;;;;12.17;49.43;99478.56;6836315;28;20209;-81
2022/02/23 17:48:12;;;;;;;16.17;5.03;;;;;;;11.99;49.43;99475.53;6837418;28;20284;-81
2022/02/23 17:51:34;;;;;;;10.93;4.80;;;;;;;11.73;50.39;99472.66;6837215;28;20218;-81
2022/02/23 17:54:56;;;;;;;7.93;4.37;;;;;;;11.89;49.86;99466.97;6837095;28;20221;-80
2022/02/23 17:58:19;;;;;;;11.37;4.80;;;;;;;12.24;48.82;99465.94;6838741;28;20220;-81
2022/02/23 18:01:41;;;;;;;5.87;4.13;;;;;;;12.16;48.56;99474.19;6837594;28;20230;-80
2022/02/23 18:05:02;;;;;;;9.87;4.07;;;;;;;11.56;50.12;99465.84;6836704;28;20336;-80
2022/02/23 18:08:24;;;;;;;6.37;3.53;;;;;;;11.22;51.92;99459.53;6837514;28;20235;-81
2022/02/23 18:11:46;;;;;;;11.37;3.87;;;;;;;11.18;51.34;99455.53;6836777;28;20233;-81
2022/02/23 18:15:13;;;;;;;6.97;3.97;;;;;;;10.75;52.10;99429.56;6836248;28;20206;-80
2022/02/23 18:18:34;;;;;;;7.70;4.07;;;;;;;11.35;50.84;99430.78;6837703;28;20198;-81
2022/02/23 18:21:56;;;;;;;6.00;3.43;;;;;;;11.16;51.09;99427.91;6834410;28;20276;-81
2022/02/23 18:25:17;;;;;;;4.80;3.30;;;;;;;11.48;50.10;99424.63;6821834;28;20232;-81
2022/02/23 18:28:39;;;;;;;5.47;3.63;;;;;;;11.63;49.67;99422.72;6833310;29;20322;-80
2022/02/23 18:32:02;;;;;;;6.07;4.23;;;;;;;10.89;49.88;99315.34;6833647;28;20241;-81
2022/02/23 18:35:24;;;;;;;5.87;4.13;;;;;;;11.30;49.66;99390.03;6833547;28;20203;-81
2022/02/23 18:38:46;;;;;;;5.13;3.67;;;;;;;11.32;50.25;99417.66;6809924;28;20651;-82
2022/02/23 18:42:07;;;;;;;10.60;3.53;;;;;;;10.93;51.24;99408.38;6811123;29;20348;-81
2022/02/23 18:45:29;;;;;;;7.17;3.07;;;;;;;11.26;50.33;99387.91;6835579;29;20210;-82
2022/02/23 18:48:52;;;;;;;7.43;3.77;;;;;;;11.18;49.96;99405.09;6839836;28;20234;-81
2022/02/23 18:52:17;;;;;;;9.43;6.20;;;;;;;10.69;51.25;99398.78;6838233;28;20229;-81
2022/02/23 18:55:39;;;;;;;8.80;4.47;;;;;;;10.24;52.50;99379.41;6836875;28;20682;-82
2022/02/23 18:59:01;;;;;;;6.40;3.80;;;;;;;10.48;51.74;99373.66;6837797;28;20592;-81
2022/02/23 19:02:23;;;;;;;9.87;4.30;;;;;;;10.70;51.50;99399.63;6836909;28;20218;-83
2022/02/23 19:05:46;;;;;;;5.87;3.97;;;;;;;10.90;50.70;99396.09;6836549;28;20210;-83
2022/02/23 19:09:09;;;;;;;6.10;4.10;;;;;;;10.66;50.98;99390.25;6837215;28;20272;-82
2022/02/23 19:12:31;;;;;;;4.90;4.10;;;;;;;10.68;50.97;99390.91;6836579;28;20270;-81
2022/02/23 19:15:52;;;;;;;7.07;3.93;;;;;;;10.53;51.42;99382.00;6822157;28;20221;-82
2022/02/23 19:19:14;;;;;;;4.73;3.70;;;;;;;10.52;51.26;99372.25;6810762;29;20233;-82
2022/02/23 19:22:37;;;;;;;9.60;3.83;;;;;;;10.01;52.88;99387.59;6835778;28;20237;-80
2022/02/23 19:25:58;;;;;;;5.17;4.67;;;;;;;10.23;52.63;99385.81;6835372;28;20300;-80
2022/02/23 19:29:20;;;;;;;7.27;3.67;;;;;;;9.84;53.50;99379.88;6835619;28;20268;-80
2022/02/23 19:32:42;;;;;;;5.40;3.83;;;;;;;10.05;52.88;99371.91;6834604;28;20230;-81
2022/02/23 19:36:05;;;;;;;8.60;4.27;;;;;;;10.33;51.71;99383.66;6834917;28;20548;-80
2022/02/23 19:39:27;;;;;;;4.83;3.60;;;;;;;9.84;52.25;99328.69;6835725;28;20237;-80
2022/02/23 19:42:49;;;;;;;5.90;3.77;;;;;;;10.10;51.85;99382.97;6835656;29;20229;-80
2022/02/23 19:46:11;;;;;;;4.30;3.90;;;;;;;9.56;52.73;99389.63;6835764;28;20578;-83
2022/02/23 19:49:32;;;;;;;6.60;3.83;;;;;;;9.83;53.36;99378.19;6818479;28;20230;-83
2022/02/23 19:52:54;;;;;;;4.37;3.77;;;;;;;10.07;52.12;99375.25;6812745;29;20603;-83
2022/02/23 19:56:18;;;;;;;6.20;3.67;;;;;;;10.13;51.68;99377.19;6809160;29;20585;-84
2022/02/23 19:59:43;;;;;;;7.80;3.70;;;;;;;9.80;52.28;99375.91;6818943;29;20205;-83
2022/02/23 20:03:05;;;;;;;4.43;3.50;;;;;;;9.79;52.39;99376.91;6839233;28;20248;-84
2022/02/23 20:06:26;;;;;;;6.63;4.47;;;;;;;9.71;52.64;99366.22;6840158;28;20249;-84
2022/02/23 20:09:48;;;;;;;7.70;3.83;;;;;;;9.86;52.64;99369.75;6840371;28;20265;-83
2022/02/23 20:13:12;;;;;;;4.77;3.57;;;;;;;9.53;53.35;99355.84;6840508;28;20234;-83
2022/02/23 20:16:35;;;;;;;6.10;4.07;;;;;;;9.65;53.28;99375.91;6840291;28;20244;-83
2022/02/23 20:19:56;;;;;;;4.57;3.63;;;;;;;9.70;52.77;99370.75;6841195;28;20603;-84
2022/02/23 20:23:18;;;;;;;5.77;3.40;;;;;;;9.28;53.56;99380.50;6835788;28;20233;-83
2022/02/23 20:26:40;;;;;;;5.33;3.80;;;;;;;8.92;54.78;99384.84;6837556;29;20245;-83
2022/02/23 20:30:05;;;;;;;5.57;3.50;;;;;;;8.67;55.98;99385.22;6838474;29;20268;-84
2022/02/23 20:33:27;;;;;;;7.00;4.67;;;;;;;8.12;57.59;99374.59;6837650;28;20245;-83
2022/02/23 20:36:48;;;;;;;5.17;4.67;;;;;;;8.14;58.25;99387.88;6837677;28;20214;-83
2022/02/23 20:40:12;;;;;;;6.80;4.40;;;;;;;8.63;57.58;99387.44;6811943;29;20210;-83